^^
Grace C. Lehan Memorial Weather Station Historical Data
Daily Summary for June 24, 2021 Units:  Both    English   Metric
Daily Weekly Monthly Yearly
  High: Low: Average:
Temperature: 45.4 °F /  7.4 °C 26.1 °F /  -3.3 °C 33.7 °F /  0.9 °C
Dew Point: 20.6 °F /  -6.3 °C 12.2 °F /  -11 °C 17.2 °F /  -8.2 °C
Humidity: 66.8% 26.1% 53%
Wind Speed: 9.1mph /  14.6km/h - 2.9mph /  4.7km/h
Wind Gust: 19mph /  30.6km/h - -
Wind- - NW
Pressure: 30.29 in /  1025.6 hPa 30.10 in /  1019.2 hPa -
Precipitation: 0.00 in /  0 mm    
 
 
Tabular Data for June 24, 2021
Time Temperature Dew Point Pressure Wind Wind Speed Wind Gust Humidity Rainfall Rate (Hourly) solar
00:04 29.7 °F /  -1.3 °C 19.4 °F /  -7 °C 30.10in /  1019.2hPa NW 3.6mph /  5.8km/h 13mph /  20.9km/h 65% 0.00in /  0mm 0 W/m2
00:09 29.7 °F /  -1.3 °C 19.4 °F /  -7 °C 30.10in /  1019.2hPa NW 4.9mph /  7.9km/h 12mph /  19.3km/h 65% 0.00in /  0mm 0 W/m2
00:14 29.7 °F /  -1.3 °C 19.3 °F /  -7.1 °C 30.10in /  1019.2hPa NW 4.1mph /  6.6km/h 12mph /  19.3km/h 64.7% 0.00in /  0mm 0 W/m2
00:19 29.7 °F /  -1.3 °C 19.1 °F /  -7.2 °C 30.10in /  1019.2hPa WNW 2.1mph /  3.4km/h 12mph /  19.3km/h 64.2% 0.00in /  0mm 0 W/m2
00:24 29.7 °F /  -1.3 °C 19.1 °F /  -7.2 °C 30.10in /  1019.2hPa NW 2.8mph /  4.5km/h 12mph /  19.3km/h 64.2% 0.00in /  0mm 0 W/m2
00:29 29.6 °F /  -1.3 °C 18.9 °F /  -7.3 °C 30.10in /  1019.2hPa WNW 4.6mph /  7.4km/h 12mph /  19.3km/h 64% 0.00in /  0mm 0 W/m2
00:34 29.6 °F /  -1.3 °C 18.9 °F /  -7.3 °C 30.10in /  1019.2hPa WNW 3.2mph /  5.1km/h 12mph /  19.3km/h 64% 0.00in /  0mm 0 W/m2
00:39 29.6 °F /  -1.3 °C 18.9 °F /  -7.3 °C 30.10in /  1019.2hPa NW 4.4mph /  7.1km/h 10mph /  16.1km/h 64% 0.00in /  0mm 0 W/m2
00:44 29.6 °F /  -1.3 °C 18.9 °F /  -7.3 °C 30.10in /  1019.2hPa NW 5.4mph /  8.7km/h 13mph /  20.9km/h 64% 0.00in /  0mm 0 W/m2
00:49 29.6 °F /  -1.3 °C 18.8 °F /  -7.3 °C 30.10in /  1019.2hPa NNW 4.1mph /  6.6km/h 13mph /  20.9km/h 63.5% 0.00in /  0mm 0 W/m2
00:54 29.6 °F /  -1.3 °C 18.8 °F /  -7.3 °C 30.11in /  1019.5hPa West 1.4mph /  2.3km/h 13mph /  20.9km/h 63.6% 0.00in /  0mm 0 W/m2
00:59 29.5 °F /  -1.4 °C 18.7 °F /  -7.4 °C 30.11in /  1019.5hPa NW 3.1mph /  5km/h 13mph /  20.9km/h 63.6% 0.00in /  0mm 0 W/m2
01:04 29.5 °F /  -1.4 °C 18.8 °F /  -7.3 °C 30.11in /  1019.5hPa NW 1mph /  1.6km/h 13mph /  20.9km/h 63.9% 0.00in /  0mm 0 W/m2
01:09 29.4 °F /  -1.4 °C 18.7 °F /  -7.4 °C 30.11in /  1019.5hPa NNW 1.5mph /  2.4km/h 4mph /  6.4km/h 64% 0.00in /  0mm 0 W/m2
01:14 29.3 °F /  -1.5 °C 18.7 °F /  -7.4 °C 30.11in /  1019.5hPa NNW 1.8mph /  2.9km/h 7mph /  11.3km/h 64.1% 0.00in /  0mm 0 W/m2
01:19 29.2 °F /  -1.6 °C 18.7 °F /  -7.4 °C 30.11in /  1019.5hPa NW 4.6mph /  7.4km/h 11mph /  17.7km/h 64.5% 0.00in /  0mm 0 W/m2
01:24 29.1 °F /  -1.6 °C 18.5 °F /  -7.5 °C 30.12in /  1019.9hPa NW 3.5mph /  5.6km/h 11mph /  17.7km/h 64% 0.00in /  0mm 0 W/m2
01:29 29.1 °F /  -1.6 °C 18.5 °F /  -7.5 °C 30.12in /  1019.9hPa NW 1.8mph /  2.9km/h 11mph /  17.7km/h 64% 0.00in /  0mm 0 W/m2
01:34 29.1 °F /  -1.6 °C 18.5 °F /  -7.5 °C 30.12in /  1019.9hPa NW 2mph /  3.2km/h 11mph /  17.7km/h 64% 0.00in /  0mm 0 W/m2
01:39 29.1 °F /  -1.6 °C 18.4 °F /  -7.6 °C 30.12in /  1019.9hPa NW 1.2mph /  1.9km/h 9mph /  14.5km/h 64% 0.00in /  0mm 0 W/m2
01:44 29 °F /  -1.7 °C 18.4 °F /  -7.6 °C 30.13in /  1020.2hPa NW 2.6mph /  4.2km/h 9mph /  14.5km/h 64% 0.00in /  0mm 0 W/m2
01:49 28.9 °F /  -1.7 °C 18.3 °F /  -7.6 °C 30.13in /  1020.2hPa NW 0.8mph /  1.3km/h 9mph /  14.5km/h 64% 0.00in /  0mm 0 W/m2
01:54 28.8 °F /  -1.8 °C 18.2 °F /  -7.7 °C 30.13in /  1020.2hPa NW 1.7mph /  2.7km/h 9mph /  14.5km/h 64% 0.00in /  0mm 0 W/m2
01:59 28.7 °F /  -1.8 °C 18.1 °F /  -7.7 °C 30.13in /  1020.2hPa NW 4mph /  6.4km/h 10mph /  16.1km/h 64% 0.00in /  0mm 0 W/m2
02:04 28.7 °F /  -1.8 °C 18.1 °F /  -7.7 °C 30.13in /  1020.2hPa NW 0.4mph /  0.6km/h 10mph /  16.1km/h 64% 0.00in /  0mm 0 W/m2
02:09 28.7 °F /  -1.8 °C 18.1 °F /  -7.7 °C 30.13in /  1020.2hPa NW 1mph /  1.6km/h 4mph /  6.4km/h 64% 0.00in /  0mm 0 W/m2
02:14 28.6 °F /  -1.9 °C 18 °F /  -7.8 °C 30.14in /  1020.5hPa NW 1.9mph /  3.1km/h 8mph /  12.9km/h 64% 0.00in /  0mm 0 W/m2
02:19 28.5 °F /  -1.9 °C 17.9 °F /  -7.8 °C 30.14in /  1020.5hPa NNW 2.3mph /  3.7km/h 9mph /  14.5km/h 64% 0.00in /  0mm 0 W/m2
02:24 28.5 °F /  -1.9 °C 17.9 °F /  -7.8 °C 30.14in /  1020.5hPa NW 1.3mph /  2.1km/h 9mph /  14.5km/h 64% 0.00in /  0mm 0 W/m2
02:29 28.4 °F /  -2 °C 17.8 °F /  -7.9 °C 30.14in /  1020.5hPa NW 1.4mph /  2.3km/h 9mph /  14.5km/h 64% 0.00in /  0mm 0 W/m2
02:34 28.3 °F /  -2.1 °C 17.7 °F /  -7.9 °C 30.14in /  1020.5hPa NW 2.9mph /  4.7km/h 9mph /  14.5km/h 64% 0.00in /  0mm 0 W/m2
02:39 28.3 °F /  -2.1 °C 17.6 °F /  -8 °C 30.15in /  1020.9hPa WNW 1.2mph /  1.9km/h 9mph /  14.5km/h 63.7% 0.00in /  0mm 0 W/m2
02:44 28.3 °F /  -2.1 °C 17.5 °F /  -8.1 °C 30.15in /  1020.9hPa NW 4.3mph /  6.9km/h 11mph /  17.7km/h 63.4% 0.00in /  0mm 0 W/m2
02:49 28.3 °F /  -2.1 °C 17.3 °F /  -8.2 °C 30.15in /  1020.9hPa NW 2.7mph /  4.3km/h 11mph /  17.7km/h 63% 0.00in /  0mm 0 W/m2
02:54 28.3 °F /  -2.1 °C 17.3 °F /  -8.2 °C 30.15in /  1020.9hPa WNW 3.6mph /  5.8km/h 11mph /  17.7km/h 63% 0.00in /  0mm 0 W/m2
02:59 28.3 °F /  -2.1 °C 17.1 °F /  -8.3 °C 30.15in /  1020.9hPa WNW 2.4mph /  3.9km/h 11mph /  17.7km/h 62.4% 0.00in /  0mm 0 W/m2
03:04 28.2 °F /  -2.1 °C 16.9 °F /  -8.4 °C 30.15in /  1020.9hPa WNW 5.5mph /  8.9km/h 14mph /  22.5km/h 62.2% 0.00in /  0mm 0 W/m2
03:09 28.3 °F /  -2.1 °C 16.9 °F /  -8.4 °C 30.15in /  1020.9hPa NW 5.2mph /  8.4km/h 14mph /  22.5km/h 62% 0.00in /  0mm 0 W/m2
03:14 28.3 °F /  -2.1 °C 16.6 °F /  -8.6 °C 30.15in /  1020.9hPa WNW 3.2mph /  5.1km/h 14mph /  22.5km/h 61.1% 0.00in /  0mm 0 W/m2
03:19 28.3 °F /  -2.1 °C 16.6 °F /  -8.6 °C 30.16in /  1021.2hPa NW 2mph /  3.2km/h 14mph /  22.5km/h 61% 0.00in /  0mm 0 W/m2
03:24 28.3 °F /  -2.1 °C 16.8 °F /  -8.4 °C 30.15in /  1020.9hPa NW 2.9mph /  4.7km/h 14mph /  22.5km/h 61.7% 0.00in /  0mm 0 W/m2
03:29 28.2 °F /  -2.1 °C 16.6 °F /  -8.6 °C 30.16in /  1021.2hPa NW 4.1mph /  6.6km/h 14mph /  22.5km/h 61.4% 0.00in /  0mm 0 W/m2
03:34 28.2 °F /  -2.1 °C 16.5 °F /  -8.6 °C 30.16in /  1021.2hPa NNW 1.5mph /  2.4km/h 14mph /  22.5km/h 61% 0.00in /  0mm 0 W/m2
03:39 28.1 °F /  -2.2 °C 16.4 °F /  -8.7 °C 30.16in /  1021.2hPa NNW 1.9mph /  3.1km/h 6mph /  9.7km/h 61% 0.00in /  0mm 0 W/m2
03:44 28.1 °F /  -2.2 °C 16.4 °F /  -8.7 °C 30.16in /  1021.2hPa NNW 2.2mph /  3.5km/h 9mph /  14.5km/h 61% 0.00in /  0mm 0 W/m2
03:49 28.1 °F /  -2.2 °C 16.4 °F /  -8.7 °C 30.17in /  1021.6hPa NW 4.3mph /  6.9km/h 11mph /  17.7km/h 61% 0.00in /  0mm 0 W/m2
03:54 28.1 °F /  -2.2 °C 16.4 °F /  -8.7 °C 30.17in /  1021.6hPa WNW 3.6mph /  5.8km/h 11mph /  17.7km/h 61% 0.00in /  0mm 0 W/m2
03:59 28.1 °F /  -2.2 °C 16.4 °F /  -8.7 °C 30.17in /  1021.6hPa WNW 2mph /  3.2km/h 11mph /  17.7km/h 61% 0.00in /  0mm 0 W/m2
04:00 28.1 °F /  -2.2 °C 16.4 °F /  -8.7 °C 30.17in /  1021.6hPa NW 1mph /  1.6km/h 11mph /  17.7km/h 61% 0.00in /  0mm 0 W/m2
04:09 28 °F /  -2.2 °C 16.3 °F /  -8.7 °C 30.17in /  1021.6hPa NW 1mph /  1.6km/h 5mph /  8km/h 61% 0.00in /  0mm 0 W/m2
04:14 27.9 °F /  -2.3 °C 16.2 °F /  -8.8 °C 30.18in /  1021.9hPa NW 0.7mph /  1.1km/h 5mph /  8km/h 61% 0.00in /  0mm 0 W/m2
04:19 27.8 °F /  -2.3 °C 16.3 °F /  -8.7 °C 30.18in /  1021.9hPa NW 0.4mph /  0.6km/h 5mph /  8km/h 61.4% 0.00in /  0mm 0 W/m2
04:24 27.7 °F /  -2.4 °C 16.4 °F /  -8.7 °C 30.18in /  1021.9hPa NW 0.5mph /  0.8km/h 5mph /  8km/h 62% 0.00in /  0mm 0 W/m2
04:29 27.6 °F /  -2.4 °C 16.3 °F /  -8.7 °C 30.18in /  1021.9hPa NW 0.6mph /  1km/h 5mph /  8km/h 62% 0.00in /  0mm 0 W/m2
04:34 27.5 °F /  -2.5 °C 16.2 °F /  -8.8 °C 30.18in /  1021.9hPa NW 1.6mph /  2.6km/h 7mph /  11.3km/h 62% 0.00in /  0mm 0 W/m2
04:39 27.4 °F /  -2.6 °C 16.3 °F /  -8.7 °C 30.18in /  1021.9hPa NW 0.4mph /  0.6km/h 7mph /  11.3km/h 62.6% 0.00in /  0mm 0 W/m2
04:44 27.3 °F /  -2.6 °C 16.4 °F /  -8.7 °C 30.18in /  1021.9hPa NW 0.1mph /  0.2km/h 7mph /  11.3km/h 63% 0.00in /  0mm 0 W/m2
04:49 27.2 °F /  -2.7 °C 16.3 °F /  -8.7 °C 30.19in /  1022.2hPa NW 0.2mph /  0.3km/h 7mph /  11.3km/h 63% 0.00in /  0mm 0 W/m2
04:54 27.1 °F /  -2.7 °C 16.2 °F /  -8.8 °C 30.19in /  1022.2hPa Calm   7mph /  11.3km/h 63.3% 0.00in /  0mm 0 W/m2
04:59 26.9 °F /  -2.8 °C 16.1 °F /  -8.8 °C 30.20in /  1022.6hPa Calm   7mph /  11.3km/h 63.2% 0.00in /  0mm 0 W/m2
05:04 26.8 °F /  -2.9 °C 16.3 °F /  -8.7 °C 30.20in /  1022.6hPa NW 0.1mph /  0.2km/h 7mph /  11.3km/h 64% 0.00in /  0mm 0 W/m2
05:09 26.7 °F /  -2.9 °C 16.3 °F /  -8.7 °C 30.21in /  1022.9hPa Calm   1mph /  1.6km/h 64.3% 0.00in /  0mm 0 W/m2
05:14 26.6 °F /  -3 °C 16.7 °F /  -8.5 °C 30.21in /  1022.9hPa Calm   1mph /  1.6km/h 65.8% 0.00in /  0mm 0 W/m2
05:19 26.4 °F /  -3.1 °C 16.6 °F /  -8.6 °C 30.21in /  1022.9hPa Calm   1mph /  1.6km/h 66% 0.00in /  0mm 0 W/m2
05:24 26.3 °F /  -3.2 °C 16.5 °F /  -8.6 °C 30.22in /  1023.2hPa NW 0.4mph /  0.6km/h 2mph /  3.2km/h 66% 0.00in /  0mm 0 W/m2
05:29 26.2 °F /  -3.2 °C 16.4 °F /  -8.7 °C 30.22in /  1023.2hPa NW 0.1mph /  0.2km/h 2mph /  3.2km/h 66% 0.00in /  0mm 0 W/m2
05:34 26.1 °F /  -3.3 °C 16.3 °F /  -8.7 °C 30.23in /  1023.6hPa NW 1.3mph /  2.1km/h 4mph /  6.4km/h 66% 0.00in /  0mm 0 W/m2
05:39 26.1 °F /  -3.3 °C 16.5 °F /  -8.6 °C 30.23in /  1023.6hPa NW 2.2mph /  3.5km/h 6mph /  9.7km/h 66.5% 0.00in /  0mm 0 W/m2
05:44 26.2 °F /  -3.2 °C 16.7 °F /  -8.5 °C 30.23in /  1023.6hPa WNW 3.6mph /  5.8km/h 11mph /  17.7km/h 66.8% 0.00in /  0mm 0 W/m2
05:49 26.5 °F /  -3.1 °C 16.7 °F /  -8.5 °C 30.23in /  1023.6hPa WNW 3.1mph /  5km/h 11mph /  17.7km/h 65.9% 0.00in /  0mm 0 W/m2
05:54 26.8 °F /  -2.9 °C 16.6 °F /  -8.6 °C 30.23in /  1023.6hPa NW 2.2mph /  3.5km/h 11mph /  17.7km/h 65% 0.00in /  0mm 0 W/m2
05:59 27 °F /  -2.8 °C 16.8 °F /  -8.4 °C 30.24in /  1023.9hPa NW 0.7mph /  1.1km/h 11mph /  17.7km/h 65% 0.00in /  0mm 0 W/m2
06:04 27 °F /  -2.8 °C 16.9 °F /  -8.4 °C 30.24in /  1023.9hPa NW 1.1mph /  1.8km/h 11mph /  17.7km/h 65% 0.00in /  0mm 0 W/m2
06:09 27.1 °F /  -2.7 °C 16.9 °F /  -8.4 °C 30.24in /  1023.9hPa NW 2.8mph /  4.5km/h 11mph /  17.7km/h 65% 0.00in /  0mm 0 W/m2
06:14 27.3 °F /  -2.6 °C 17.1 °F /  -8.3 °C 30.24in /  1023.9hPa NW 1mph /  1.6km/h 11mph /  17.7km/h 65% 0.00in /  0mm 0 W/m2
06:19 27.3 °F /  -2.6 °C 16.9 °F /  -8.4 °C 30.25in /  1024.3hPa NW 0.7mph /  1.1km/h 11mph /  17.7km/h 64.5% 0.00in /  0mm 0 W/m2
06:24 27.3 °F /  -2.6 °C 17.1 °F /  -8.3 °C 30.25in /  1024.3hPa NW 1.1mph /  1.8km/h 11mph /  17.7km/h 65% 0.00in /  0mm 0 W/m2
06:29 27.3 °F /  -2.6 °C 17.1 °F /  -8.3 °C 30.25in /  1024.3hPa NW 2.2mph /  3.5km/h 11mph /  17.7km/h 65% 0.00in /  0mm 0 W/m2
06:34 27.3 °F /  -2.6 °C 17.1 °F /  -8.3 °C 30.25in /  1024.3hPa NNW 1.6mph /  2.6km/h 11mph /  17.7km/h 65% 0.00in /  0mm 0 W/m2
06:39 27.4 °F /  -2.6 °C 17.2 °F /  -8.2 °C 30.25in /  1024.3hPa NW 2.8mph /  4.5km/h 7mph /  11.3km/h 65% 0.00in /  0mm 0 W/m2
06:44 27.4 °F /  -2.6 °C 17.2 °F /  -8.2 °C 30.25in /  1024.3hPa NW 2.7mph /  4.3km/h 7mph /  11.3km/h 65% 0.00in /  0mm 0 W/m2
06:49 27.5 °F /  -2.5 °C 17 °F /  -8.3 °C 30.26in /  1024.6hPa NW 1mph /  1.6km/h 7mph /  11.3km/h 64.3% 0.00in /  0mm 0 W/m2
06:54 27.5 °F /  -2.5 °C 16.9 °F /  -8.4 °C 30.26in /  1024.6hPa NNW 1.5mph /  2.4km/h 9mph /  14.5km/h 64% 0.00in /  0mm 5 W/m2
06:59 27.6 °F /  -2.4 °C 17 °F /  -8.3 °C 30.26in /  1024.6hPa North 1.9mph /  3.1km/h 9mph /  14.5km/h 64% 0.00in /  0mm 11 W/m2
07:04 27.7 °F /  -2.4 °C 17.1 °F /  -8.3 °C 30.26in /  1024.6hPa North 1.1mph /  1.8km/h 9mph /  14.5km/h 64% 0.00in /  0mm 12 W/m2
07:09 27.8 °F /  -2.3 °C 17.2 °F /  -8.2 °C 30.26in /  1024.6hPa Calm   3mph /  4.8km/h 64% 0.00in /  0mm 14 W/m2
07:14 27.8 °F /  -2.3 °C 17.2 °F /  -8.2 °C 30.26in /  1024.6hPa North 0.2mph /  0.3km/h 3mph /  4.8km/h 64% 0.00in /  0mm 16 W/m2
07:19 27.8 °F /  -2.3 °C 17.2 °F /  -8.2 °C 30.27in /  1024.9hPa North 0.2mph /  0.3km/h 3mph /  4.8km/h 64% 0.00in /  0mm 19 W/m2
07:24 27.8 °F /  -2.3 °C 17.2 °F /  -8.2 °C 30.27in /  1024.9hPa North 0.7mph /  1.1km/h 4mph /  6.4km/h 64% 0.00in /  0mm 33 W/m2
07:29 28 °F /  -2.2 °C 17.4 °F /  -8.1 °C 30.27in /  1024.9hPa North 0.2mph /  0.3km/h 4mph /  6.4km/h 64% 0.00in /  0mm 42 W/m2
07:34 28.3 °F /  -2.1 °C 17.8 °F /  -7.9 °C 30.27in /  1024.9hPa North 0.8mph /  1.3km/h 4mph /  6.4km/h 64.4% 0.00in /  0mm 47 W/m2
07:39 28.7 °F /  -1.8 °C 18 °F /  -7.8 °C 30.27in /  1024.9hPa NNW 1.2mph /  1.9km/h 7mph /  11.3km/h 63.9% 0.00in /  0mm 105 W/m2
07:44 29.2 °F /  -1.6 °C 18.2 °F /  -7.7 °C 30.27in /  1024.9hPa NW 1.5mph /  2.4km/h 7mph /  11.3km/h 62.9% 0.00in /  0mm 100 W/m2
07:49 29.9 °F /  -1.2 °C 18.4 °F /  -7.6 °C 30.27in /  1024.9hPa NW 0.3mph /  0.5km/h 7mph /  11.3km/h 61.8% 0.00in /  0mm 46 W/m2
07:54 30.6 °F /  -0.8 °C 18.8 °F /  -7.3 °C 30.27in /  1024.9hPa NNW 1.2mph /  1.9km/h 7mph /  11.3km/h 61.2% 0.00in /  0mm 56 W/m2
07:59 31 °F /  -0.6 °C 18.7 °F /  -7.4 °C 30.28in /  1025.3hPa NNW 0.8mph /  1.3km/h 7mph /  11.3km/h 59.8% 0.00in /  0mm 146 W/m2
08:00 31.2 °F /  -0.4 °C 18.6 °F /  -7.4 °C 30.27in /  1024.9hPa Calm   7mph /  11.3km/h 59% 0.00in /  0mm 146 W/m2
08:09 32 °F /  0 °C 19.1 °F /  -7.2 °C 30.28in /  1025.3hPa NNW 2.4mph /  3.9km/h 6mph /  9.7km/h 58.5% 0.00in /  0mm 199 W/m2
08:14 32.6 °F /  0.3 °C 19.2 °F /  -7.1 °C 30.28in /  1025.3hPa NNW 3.3mph /  5.3km/h 9mph /  14.5km/h 57.3% 0.00in /  0mm 232 W/m2
08:19 33.3 °F /  0.7 °C 19.4 °F /  -7 °C 30.28in /  1025.3hPa NNW 3.4mph /  5.5km/h 10mph /  16.1km/h 56.2% 0.00in /  0mm 244 W/m2
08:24 33.8 °F /  1 °C 19.4 °F /  -7 °C 30.28in /  1025.3hPa NW 3.3mph /  5.3km/h 12mph /  19.3km/h 55.1% 0.00in /  0mm 248 W/m2
08:29 34.3 °F /  1.3 °C 19.4 °F /  -7 °C 30.28in /  1025.3hPa NW 2.8mph /  4.5km/h 12mph /  19.3km/h 54% 0.00in /  0mm 265 W/m2
08:34 34.8 °F /  1.6 °C 19.8 °F /  -6.8 °C 30.28in /  1025.3hPa NW 2.2mph /  3.5km/h 12mph /  19.3km/h 54% 0.00in /  0mm 269 W/m2
08:39 35.3 °F /  1.8 °C 19.8 °F /  -6.8 °C 30.28in /  1025.3hPa NW 1.9mph /  3.1km/h 9mph /  14.5km/h 52.8% 0.00in /  0mm 276 W/m2
08:44 35.6 °F /  2 °C 19.6 °F /  -6.9 °C 30.28in /  1025.3hPa NW 2.8mph /  4.5km/h 9mph /  14.5km/h 51.7% 0.00in /  0mm 288 W/m2
08:49 35.7 °F /  2.1 °C 19.3 °F /  -7.1 °C 30.28in /  1025.3hPa NW 4.2mph /  6.8km/h 9mph /  14.5km/h 51% 0.00in /  0mm 278 W/m2
08:54 35.5 °F /  1.9 °C 19.2 °F /  -7.1 °C 30.28in /  1025.3hPa NW 4.6mph /  7.4km/h 11mph /  17.7km/h 51% 0.00in /  0mm 214 W/m2
08:59 35.2 °F /  1.8 °C 19.1 °F /  -7.2 °C 30.28in /  1025.3hPa NNW 1.3mph /  2.1km/h 11mph /  17.7km/h 51.4% 0.00in /  0mm 141 W/m2
09:04 35.2 °F /  1.8 °C 19.3 °F /  -7.1 °C 30.29in /  1025.6hPa NW 1.9mph /  3.1km/h 11mph /  17.7km/h 52% 0.00in /  0mm 211 W/m2
09:09 35.1 °F /  1.7 °C 19.2 °F /  -7.1 °C 30.29in /  1025.6hPa NW 2mph /  3.2km/h 7mph /  11.3km/h 52% 0.00in /  0mm 211 W/m2
09:14 34.9 °F /  1.6 °C 19 °F /  -7.2 °C 30.29in /  1025.6hPa WNW 3mph /  4.8km/h 9mph /  14.5km/h 51.9% 0.00in /  0mm 167 W/m2
09:19 34.8 °F /  1.6 °C 19 °F /  -7.2 °C 30.28in /  1025.3hPa NW 1.9mph /  3.1km/h 9mph /  14.5km/h 52% 0.00in /  0mm 181 W/m2
09:24 35 °F /  1.7 °C 19.1 °F /  -7.2 °C 30.28in /  1025.3hPa NW 1.2mph /  1.9km/h 9mph /  14.5km/h 52% 0.00in /  0mm 214 W/m2
09:29 35.2 °F /  1.8 °C 19.2 °F /  -7.1 °C 30.29in /  1025.6hPa NW 2.1mph /  3.4km/h 9mph /  14.5km/h 51.7% 0.00in /  0mm 139 W/m2
09:34 35.3 °F /  1.8 °C 19 °F /  -7.2 °C 30.28in /  1025.3hPa WNW 3.2mph /  5.1km/h 11mph /  17.7km/h 51% 0.00in /  0mm 142 W/m2
09:39 35.3 °F /  1.8 °C 18.8 °F /  -7.3 °C 30.29in /  1025.6hPa NW 3mph /  4.8km/h 11mph /  17.7km/h 50.7% 0.00in /  0mm 139 W/m2
09:44 35.2 °F /  1.8 °C 18.9 °F /  -7.3 °C 30.28in /  1025.3hPa WNW 2.5mph /  4km/h 11mph /  17.7km/h 51% 0.00in /  0mm 156 W/m2
09:49 35.3 °F /  1.8 °C 19 °F /  -7.2 °C 30.29in /  1025.6hPa WNW 2.3mph /  3.7km/h 11mph /  17.7km/h 51% 0.00in /  0mm 135 W/m2
09:54 35.4 °F /  1.9 °C 19.1 °F /  -7.2 °C 30.29in /  1025.6hPa WNW 3.7mph /  6km/h 11mph /  17.7km/h 51% 0.00in /  0mm 218 W/m2
09:59 35.7 °F /  2.1 °C 19 °F /  -7.2 °C 30.29in /  1025.6hPa WNW 4.2mph /  6.8km/h 11mph /  17.7km/h 50.3% 0.00in /  0mm 339 W/m2
10:04 36.2 °F /  2.3 °C 19.1 °F /  -7.2 °C 30.29in /  1025.6hPa WNW 3.5mph /  5.6km/h 11mph /  17.7km/h 49.5% 0.00in /  0mm 364 W/m2
10:09 37 °F /  2.8 °C 19.6 °F /  -6.9 °C 30.29in /  1025.6hPa WNW 2.6mph /  4.2km/h 9mph /  14.5km/h 49% 0.00in /  0mm 362 W/m2
10:14 37.8 °F /  3.2 °C 20.1 °F /  -6.6 °C 30.29in /  1025.6hPa NW 2.2mph /  3.5km/h 9mph /  14.5km/h 48.5% 0.00in /  0mm 469 W/m2
10:19 38.9 °F /  3.8 °C 20.6 °F /  -6.3 °C 30.28in /  1025.3hPa WNW 1.8mph /  2.9km/h 9mph /  14.5km/h 47.3% 0.00in /  0mm 478 W/m2
10:24 39.8 °F /  4.3 °C 20.3 °F /  -6.5 °C 30.28in /  1025.3hPa WNW 4.1mph /  6.6km/h 11mph /  17.7km/h 45.1% 0.00in /  0mm 483 W/m2
10:29 40.3 °F /  4.6 °C 19.4 °F /  -7 °C 30.28in /  1025.3hPa WNW 4.5mph /  7.2km/h 11mph /  17.7km/h 42.7% 0.00in /  0mm 490 W/m2
10:34 40.4 °F /  4.7 °C 19.5 °F /  -6.9 °C 30.28in /  1025.3hPa NW 3.9mph /  6.3km/h 12mph /  19.3km/h 42.7% 0.00in /  0mm 473 W/m2
10:39 40.5 °F /  4.7 °C 19.3 °F /  -7.1 °C 30.28in /  1025.3hPa WNW 6.5mph /  10.5km/h 14mph /  22.5km/h 42.2% 0.00in /  0mm 480 W/m2
10:44 40.3 °F /  4.6 °C 18.5 °F /  -7.5 °C 30.27in /  1024.9hPa WNW 8mph /  12.9km/h 15mph /  24.1km/h 41% 0.00in /  0mm 244 W/m2
10:49 40 °F /  4.4 °C 18.2 °F /  -7.7 °C 30.27in /  1024.9hPa NW 7.5mph /  12.1km/h 17mph /  27.4km/h 41% 0.00in /  0mm 207 W/m2
10:54 39.9 °F /  4.4 °C 18.4 °F /  -7.6 °C 30.27in /  1024.9hPa NW 4.4mph /  7.1km/h 17mph /  27.4km/h 41.5% 0.00in /  0mm 362 W/m2
10:59 40 °F /  4.4 °C 18.2 °F /  -7.7 °C 30.27in /  1024.9hPa WNW 5.8mph /  9.3km/h 17mph /  27.4km/h 41% 0.00in /  0mm 404 W/m2
11:04 40.2 °F /  4.6 °C 18.4 °F /  -7.6 °C 30.27in /  1024.9hPa NW 5.3mph /  8.5km/h 17mph /  27.4km/h 41.1% 0.00in /  0mm 353 W/m2
11:09 40.4 °F /  4.7 °C 18.4 °F /  -7.6 °C 30.26in /  1024.6hPa NW 3mph /  4.8km/h 14mph /  22.5km/h 40.6% 0.00in /  0mm 179 W/m2
11:14 40.6 °F /  4.8 °C 18.7 °F /  -7.4 °C 30.26in /  1024.6hPa WNW 3mph /  4.8km/h 14mph /  22.5km/h 40.9% 0.00in /  0mm 360 W/m2
11:19 40.9 °F /  4.9 °C 18.3 °F /  -7.6 °C 30.26in /  1024.6hPa WNW 3.4mph /  5.5km/h 17mph /  27.4km/h 39.7% 0.00in /  0mm 413 W/m2
11:24 41.1 °F /  5.1 °C 18.1 °F /  -7.7 °C 30.26in /  1024.6hPa WNW 5.3mph /  8.5km/h 17mph /  27.4km/h 39% 0.00in /  0mm 313 W/m2
11:29 41.3 °F /  5.2 °C 17.9 °F /  -7.8 °C 30.26in /  1024.6hPa NW 7.4mph /  11.9km/h 17mph /  27.4km/h 38.5% 0.00in /  0mm 127 W/m2
11:34 41.5 °F /  5.3 °C 17.6 °F /  -8 °C 30.26in /  1024.6hPa NW 3.3mph /  5.3km/h 17mph /  27.4km/h 37.7% 0.00in /  0mm 128 W/m2
11:39 41.7 °F /  5.4 °C 17.6 °F /  -8 °C 30.26in /  1024.6hPa NW 3.9mph /  6.3km/h 13mph /  20.9km/h 37.3% 0.00in /  0mm 118 W/m2
11:44 42 °F /  5.6 °C 17.8 °F /  -7.9 °C 30.25in /  1024.3hPa NW 2.4mph /  3.9km/h 13mph /  20.9km/h 37.2% 0.00in /  0mm 446 W/m2
11:49 42.4 °F /  5.8 °C 18.1 °F /  -7.7 °C 30.25in /  1024.3hPa WNW 4.4mph /  7.1km/h 15mph /  24.1km/h 37.2% 0.00in /  0mm 425 W/m2
11:54 42.7 °F /  5.9 °C 16.6 °F /  -8.6 °C 30.25in /  1024.3hPa WNW 8.8mph /  14.2km/h 17mph /  27.4km/h 34.5% 0.00in /  0mm 130 W/m2
11:59 42.6 °F /  5.9 °C 16.8 °F /  -8.4 °C 30.25in /  1024.3hPa NW 5.7mph /  9.2km/h 17mph /  27.4km/h 35% 0.00in /  0mm 411 W/m2
12:00 42.6 °F /  5.9 °C 16.2 °F /  -8.8 °C 30.25in /  1024.3hPa NNW 5mph /  8km/h 17mph /  27.4km/h 34% 0.00in /  0mm 373 W/m2
12:09 42.9 °F /  6.1 °C 16.2 °F /  -8.8 °C 30.25in /  1024.3hPa NW 5.1mph /  8.2km/h 13mph /  20.9km/h 33.6% 0.00in /  0mm 269 W/m2
12:14 43.2 °F /  6.2 °C 15.8 °F /  -9 °C 30.24in /  1023.9hPa NNW 4.4mph /  7.1km/h 14mph /  22.5km/h 32.6% 0.00in /  0mm 269 W/m2
12:19 43.4 °F /  6.3 °C 16.9 °F /  -8.4 °C 30.24in /  1023.9hPa WNW 4.3mph /  6.9km/h 14mph /  22.5km/h 33.9% 0.00in /  0mm 65 W/m2
12:24 43.6 °F /  6.4 °C 15.6 °F /  -9.1 °C 30.24in /  1023.9hPa WNW 7.9mph /  12.7km/h 15mph /  24.1km/h 31.8% 0.00in /  0mm 132 W/m2
12:29 43.5 °F /  6.4 °C 14.6 °F /  -9.7 °C 30.24in /  1023.9hPa NW 9.1mph /  14.6km/h 19mph /  30.6km/h 30.6% 0.00in /  0mm 132 W/m2
12:34 43.4 °F /  6.3 °C 14.2 °F /  -9.9 °C 30.23in /  1023.6hPa NW 6.7mph /  10.8km/h 19mph /  30.6km/h 30.2% 0.00in /  0mm 127 W/m2
12:39 43.5 °F /  6.4 °C 14.6 °F /  -9.7 °C 30.23in /  1023.6hPa NW 5mph /  8km/h 18mph /  29km/h 30.6% 0.00in /  0mm 86 W/m2
12:44 43.7 °F /  6.5 °C 15 °F /  -9.4 °C 30.23in /  1023.6hPa NW 5.4mph /  8.7km/h 18mph /  29km/h 31% 0.00in /  0mm 86 W/m2
12:49 43.7 °F /  6.5 °C 15.1 °F /  -9.4 °C 30.23in /  1023.6hPa NNW 4.3mph /  6.9km/h 18mph /  29km/h 31% 0.00in /  0mm 236 W/m2
12:54 43.6 °F /  6.4 °C 14.8 °F /  -9.6 °C 30.23in /  1023.6hPa NW 5.7mph /  9.2km/h 18mph /  29km/h 30.8% 0.00in /  0mm 329 W/m2
12:59 43.5 °F /  6.4 °C 14.2 °F /  -9.9 °C 30.23in /  1023.6hPa WNW 4mph /  6.4km/h 18mph /  29km/h 30% 0.00in /  0mm 288 W/m2
13:03 43.6 °F /  6.4 °C 14.5 °F /  -9.7 °C 30.23in /  1023.6hPa NW 2.4mph /  3.9km/h 18mph /  29km/h 30.4% 0.00in /  0mm 227 W/m2
13:09 43.7 °F /  6.5 °C 14.9 °F /  -9.5 °C 30.23in /  1023.6hPa NNW 1.8mph /  2.9km/h 9mph /  14.5km/h 30.8% 0.00in /  0mm 332 W/m2
13:14 43.9 °F /  6.6 °C 15.2 °F /  -9.3 °C 30.23in /  1023.6hPa NW 4.3mph /  6.9km/h 11mph /  17.7km/h 31% 0.00in /  0mm 302 W/m2
13:19 44 °F /  6.7 °C 14.1 °F /  -9.9 °C 30.23in /  1023.6hPa NW 6.6mph /  10.6km/h 15mph /  24.1km/h 29.4% 0.00in /  0mm 88 W/m2
13:24 44 °F /  6.7 °C 14 °F /  -10 °C 30.23in /  1023.6hPa NW 4.1mph /  6.6km/h 15mph /  24.1km/h 29.2% 0.00in /  0mm 39 W/m2
13:29 44 °F /  6.7 °C 13.9 °F /  -10.1 °C 30.22in /  1023.2hPa NNW 2.8mph /  4.5km/h 15mph /  24.1km/h 29.1% 0.00in /  0mm 111 W/m2
13:34 44.1 °F /  6.7 °C 13.7 °F /  -10.2 °C 30.22in /  1023.2hPa NNW 5.8mph /  9.3km/h 15mph /  24.1km/h 28.7% 0.00in /  0mm 197 W/m2
13:39 44.3 °F /  6.8 °C 13.7 °F /  -10.2 °C 30.22in /  1023.2hPa NNW 3.4mph /  5.5km/h 13mph /  20.9km/h 28.5% 0.00in /  0mm 162 W/m2
13:44 44.6 °F /  7 °C 13.8 °F /  -10.1 °C 30.21in /  1022.9hPa NNW 3.1mph /  5km/h 13mph /  20.9km/h 28.4% 0.00in /  0mm 199 W/m2
13:49 44.9 °F /  7.2 °C 13.9 °F /  -10.1 °C 30.21in /  1022.9hPa NW 5.4mph /  8.7km/h 13mph /  20.9km/h 28.2% 0.00in /  0mm 373 W/m2
13:54 45.2 °F /  7.3 °C 14 °F /  -10 °C 30.21in /  1022.9hPa NW 3.2mph /  5.1km/h 14mph /  22.5km/h 28% 0.00in /  0mm 376 W/m2
13:59 45.3 °F /  7.4 °C 14.1 °F /  -9.9 °C 30.21in /  1022.9hPa WNW 5mph /  8km/h 14mph /  22.5km/h 28% 0.00in /  0mm 188 W/m2
14:04 45.2 °F /  7.3 °C 14.1 °F /  -9.9 °C 30.22in /  1023.2hPa WNW 2.9mph /  4.7km/h 14mph /  22.5km/h 28% 0.00in /  0mm 188 W/m2
14:09 45.4 °F /  7.4 °C 14.2 °F /  -9.9 °C 30.22in /  1023.2hPa NW 2.5mph /  4km/h 10mph /  16.1km/h 28% 0.00in /  0mm 183 W/m2
14:14 45.4 °F /  7.4 °C 13.7 °F /  -10.2 °C 30.22in /  1023.2hPa NW 3.5mph /  5.6km/h 10mph /  16.1km/h 27.3% 0.00in /  0mm 77 W/m2
14:19 45.2 °F /  7.3 °C 12.5 °F /  -10.8 °C 30.22in /  1023.2hPa NW 6.8mph /  10.9km/h 17mph /  27.4km/h 26.2% 0.00in /  0mm 58 W/m2
14:24 44.9 °F /  7.2 °C 12.2 °F /  -11 °C 30.22in /  1023.2hPa NW 5.9mph /  9.5km/h 17mph /  27.4km/h 26.1% 0.00in /  0mm 63 W/m2
14:29 44.7 °F /  7.1 °C 12.5 °F /  -10.8 °C 30.22in /  1023.2hPa NW 4.6mph /  7.4km/h 17mph /  27.4km/h 26.7% 0.00in /  0mm 128 W/m2
14:34 44.6 °F /  7 °C 12.7 °F /  -10.7 °C 30.22in /  1023.2hPa NW 5.3mph /  8.5km/h 17mph /  27.4km/h 27% 0.00in /  0mm 26 W/m2
14:39 44.5 °F /  6.9 °C 12.6 °F /  -10.8 °C 30.22in /  1023.2hPa NW 3.8mph /  6.1km/h 15mph /  24.1km/h 27% 0.00in /  0mm 26 W/m2
14:44 44.5 °F /  6.9 °C 13.3 °F /  -10.4 °C 30.22in /  1023.2hPa NW 4.2mph /  6.8km/h 15mph /  24.1km/h 27.9% 0.00in /  0mm 25 W/m2
14:48 44.5 °F /  6.9 °C 13.2 °F /  -10.4 °C 30.22in /  1023.2hPa NW 4.4mph /  7.1km/h 15mph /  24.1km/h 27.8% 0.00in /  0mm 25 W/m2
Hartford County Weather
Compliments of Weather Underground - 2 mb